This is the latest recevied weather packets stored in our database for station/object KC3AWA. If no packets are shown the sender has not sent any weather packets the latest 1 day(s).
| Time | Temp. | Humidity | Pressure | Rain* | Wind** | Luminosity | Snow |
|---|---|---|---|---|---|---|---|
| 1778101389 | 10.56° C | 51% | 1012.3 hPa | 0 mm | - | 115 W/m² | - |
| 1778100782 | 11.11° C | 55% | 1011.9 hPa | 0 mm | - | 173 W/m² | - |
| 1778100177 | 11.11° C | 54% | 1011.9 hPa | 0 mm | - | 329 W/m² | - |
| 1778097752 | 11.67° C | 54% | 1011.9 hPa | 0 mm | - | 153 W/m² | - |
| 1778097448 | 11.67° C | 55% | 1012.1 hPa | 0 mm | - | 208 W/m² | - |
| 1778097145 | 12.22° C | 54% | 1012 hPa | 0 mm | - | 245 W/m² | - |
| 1778094417 | 11.11° C | 68% | 1011.8 hPa | 0 mm | - | 89 W/m² | - |
| 1778092598 | 12.22° C | 65% | 1011.4 hPa | 0 mm | - | 152 W/m² | - |
| 1778090780 | 12.78° C | 68% | 1011.5 hPa | 0 mm | - | 381 W/m² | - |
| 1778086540 | 10.56° C | 79% | 1011 hPa | 0 mm | - | 126 W/m² | - |
| 1778086236 | 10.56° C | 77% | 1010.8 hPa | 0 mm | - | 133 W/m² | - |
| 1778085933 | 10.56° C | 77% | 1010.9 hPa | 0 mm | - | 296 W/m² | - |
| 1778085630 | 10.56° C | 77% | 1011 hPa | 0 mm | - | 226 W/m² | - |
| 1778084113 | 11.11° C | 79% | 1010.6 hPa | 0 mm | - | 301 W/m² | - |
| 1778079972 | 9.44° C | 92% | 1010.4 hPa | 0 mm | - | 216 W/m² | - |
| 1778079366 | 9.44° C | 92% | 1010.1 hPa | 0 mm | - | 146 W/m² | - |
| 1778077550 | 9.44° C | 95% | 1009.5 hPa | 0 mm | - | 287 W/m² | - |
| 1778076644 | 8.89° C | 96% | 1009.4 hPa | 0 mm | - | 286 W/m² | - |
| 1778075735 | 8.89° C | 96% | 1009.3 hPa | 0 mm | - | 258 W/m² | - |
| 1778075431 | 8.89° C | 97% | 1009.2 hPa | 0 mm | - | 211 W/m² | - |
| 1778074824 | 8.33° C | 97% | 1009.2 hPa | 0 mm | - | 149 W/m² | - |
| 1778074218 | 8.33° C | 97% | 1009.3 hPa | 0 mm | - | 130 W/m² | - |
| 1778073915 | 8.33° C | 97% | 1009 hPa | 0 mm | - | 135 W/m² | - |
| 1778073006 | 7.78° C | 97% | 1008.6 hPa | 0 mm | - | 145 W/m² | - |
| 1778070889 | 7.78° C | 98% | 1008.4 hPa | 1.27 mm | - | 79 W/m² | - |
* Rain latest hour (hover to see other rain measurements)
** Current wind speed in m/s (hover to see current wind gust speed)